sensor_id;sensor_type;location;lat;lon;timestamp;temperature;humidity
56256;DHT22;57229;51.432;-2.598;2022-07-04T00:00:37;12.40;99.90
56256;DHT22;57229;51.432;-2.598;2022-07-04T00:03:03;12.40;99.90
56256;DHT22;57229;51.432;-2.598;2022-07-04T00:05:29;12.50;99.90
56256;DHT22;57229;51.432;-2.598;2022-07-04T00:07:54;12.50;99.90
56256;DHT22;57229;51.432;-2.598;2022-07-04T00:10:20;12.40;99.90
56256;DHT22;57229;51.432;-2.598;2022-07-04T00:12:46;12.40;99.90
56256;DHT22;57229;51.432;-2.598;2022-07-04T00:15:25;12.40;99.90
56256;DHT22;57229;51.432;-2.598;2022-07-04T00:17:51;12.40;99.90
56256;DHT22;57229;51.432;-2.598;2022-07-04T00:20:17;12.30;99.90
56256;DHT22;57229;51.432;-2.598;2022-07-04T00:22:44;12.30;99.90
56256;DHT22;57229;51.432;-2.598;2022-07-04T00:25:10;12.30;99.90
56256;DHT22;57229;51.432;-2.598;2022-07-04T00:27:38;12.30;99.90
56256;DHT22;57229;51.432;-2.598;2022-07-04T00:30:04;12.20;99.90
56256;DHT22;57229;51.432;-2.598;2022-07-04T00:32:31;12.20;99.90
56256;DHT22;57229;51.432;-2.598;2022-07-04T00:34:56;12.20;99.90
56256;DHT22;57229;51.432;-2.598;2022-07-04T00:37:22;12.20;99.90
56256;DHT22;57229;51.432;-2.598;2022-07-04T00:39:48;12.20;99.90
56256;DHT22;57229;51.432;-2.598;2022-07-04T00:42:14;12.10;99.90
56256;DHT22;57229;51.432;-2.598;2022-07-04T00:44:39;12.00;99.90
56256;DHT22;57229;51.432;-2.598;2022-07-04T00:47:06;12.10;99.90
56256;DHT22;57229;51.432;-2.598;2022-07-04T00:49:33;12.00;99.90
56256;DHT22;57229;51.432;-2.598;2022-07-04T00:52:06;12.00;99.90
56256;DHT22;57229;51.432;-2.598;2022-07-04T00:54:32;11.90;99.90
56256;DHT22;57229;51.432;-2.598;2022-07-04T00:56:58;11.90;99.90
56256;DHT22;57229;51.432;-2.598;2022-07-04T00:59:25;11.90;99.90
56256;DHT22;57229;51.432;-2.598;2022-07-04T01:01:51;11.80;99.90
56256;DHT22;57229;51.432;-2.598;2022-07-04T01:04:17;11.70;99.90
56256;DHT22;57229;51.432;-2.598;2022-07-04T01:06:44;11.60;99.90
56256;DHT22;57229;51.432;-2.598;2022-07-04T01:09:13;11.60;99.90
56256;DHT22;57229;51.432;-2.598;2022-07-04T01:11:39;11.60;99.90
56256;DHT22;57229;51.432;-2.598;2022-07-04T01:14:04;11.50;99.90
56256;DHT22;57229;51.432;-2.598;2022-07-04T01:16:33;11.50;99.90
56256;DHT22;57229;51.432;-2.598;2022-07-04T01:18:59;11.40;99.90
56256;DHT22;57229;51.432;-2.598;2022-07-04T01:21:25;11.40;99.90
56256;DHT22;57229;51.432;-2.598;2022-07-04T01:23:51;11.30;99.90
56256;DHT22;57229;51.432;-2.598;2022-07-04T01:26:17;11.30;99.90
56256;DHT22;57229;51.432;-2.598;2022-07-04T01:28:44;11.30;99.90
56256;DHT22;57229;51.432;-2.598;2022-07-04T01:31:09;11.30;99.90
56256;DHT22;57229;51.432;-2.598;2022-07-04T01:33:35;11.30;99.90
56256;DHT22;57229;51.432;-2.598;2022-07-04T01:36:01;11.30;99.90
56256;DHT22;57229;51.432;-2.598;2022-07-04T01:38:26;11.30;99.90
56256;DHT22;57229;51.432;-2.598;2022-07-04T01:40:52;11.20;99.90
56256;DHT22;57229;51.432;-2.598;2022-07-04T01:43:18;11.20;99.90
56256;DHT22;57229;51.432;-2.598;2022-07-04T01:45:44;11.10;99.90
56256;DHT22;57229;51.432;-2.598;2022-07-04T01:48:10;11.10;99.90
56256;DHT22;57229;51.432;-2.598;2022-07-04T01:50:37;11.00;99.90
56256;DHT22;57229;51.432;-2.598;2022-07-04T01:53:04;11.00;99.90
56256;DHT22;57229;51.432;-2.598;2022-07-04T01:55:30;11.10;99.90
56256;DHT22;57229;51.432;-2.598;2022-07-04T01:57:56;11.20;99.90
56256;DHT22;57229;51.432;-2.598;2022-07-04T02:00:23;11.20;99.90
56256;DHT22;57229;51.432;-2.598;2022-07-04T02:03:07;11.20;99.90
56256;DHT22;57229;51.432;-2.598;2022-07-04T02:05:33;11.20;99.90
56256;DHT22;57229;51.432;-2.598;2022-07-04T02:07:59;11.10;99.90
56256;DHT22;57229;51.432;-2.598;2022-07-04T02:10:25;11.10;99.90
56256;DHT22;57229;51.432;-2.598;2022-07-04T02:12:51;11.10;99.90
56256;DHT22;57229;51.432;-2.598;2022-07-04T02:15:39;11.10;99.90
56256;DHT22;57229;51.432;-2.598;2022-07-04T02:18:08;11.00;99.90
56256;DHT22;57229;51.432;-2.598;2022-07-04T02:20:35;10.90;99.90
56256;DHT22;57229;51.432;-2.598;2022-07-04T02:23:01;10.90;99.90
56256;DHT22;57229;51.432;-2.598;2022-07-04T02:25:27;10.90;99.90
56256;DHT22;57229;51.432;-2.598;2022-07-04T02:27:53;10.90;99.90
56256;DHT22;57229;51.432;-2.598;2022-07-04T02:30:19;10.90;99.90
56256;DHT22;57229;51.432;-2.598;2022-07-04T02:32:45;11.00;99.90
56256;DHT22;57229;51.432;-2.598;2022-07-04T02:35:11;11.00;99.90
56256;DHT22;57229;51.432;-2.598;2022-07-04T02:37:37;11.20;99.90
56256;DHT22;57229;51.432;-2.598;2022-07-04T02:40:04;11.20;99.90
56256;DHT22;57229;51.432;-2.598;2022-07-04T02:42:34;11.30;99.90
56256;DHT22;57229;51.432;-2.598;2022-07-04T02:45:00;11.50;99.90
56256;DHT22;57229;51.432;-2.598;2022-07-04T02:47:27;11.60;99.90
56256;DHT22;57229;51.432;-2.598;2022-07-04T02:49:53;11.60;99.90
56256;DHT22;57229;51.432;-2.598;2022-07-04T02:52:19;11.70;99.90
56256;DHT22;57229;51.432;-2.598;2022-07-04T02:54:44;11.70;99.90
56256;DHT22;57229;51.432;-2.598;2022-07-04T02:57:13;11.60;99.90
56256;DHT22;57229;51.432;-2.598;2022-07-04T02:59:39;11.60;99.90
56256;DHT22;57229;51.432;-2.598;2022-07-04T03:02:04;11.60;99.90
56256;DHT22;57229;51.432;-2.598;2022-07-04T03:04:30;11.60;99.90
56256;DHT22;57229;51.432;-2.598;2022-07-04T03:06:56;11.80;99.90
56256;DHT22;57229;51.432;-2.598;2022-07-04T03:09:21;11.90;99.90
56256;DHT22;57229;51.432;-2.598;2022-07-04T03:11:47;12.00;99.90
56256;DHT22;57229;51.432;-2.598;2022-07-04T03:14:13;12.00;99.90
56256;DHT22;57229;51.432;-2.598;2022-07-04T03:16:38;12.10;99.90
56256;DHT22;57229;51.432;-2.598;2022-07-04T03:19:05;12.20;99.90
56256;DHT22;57229;51.432;-2.598;2022-07-04T03:21:31;12.30;99.90
56256;DHT22;57229;51.432;-2.598;2022-07-04T03:23:56;12.40;99.90
56256;DHT22;57229;51.432;-2.598;2022-07-04T03:26:29;12.40;99.90
56256;DHT22;57229;51.432;-2.598;2022-07-04T03:28:56;12.40;99.90
56256;DHT22;57229;51.432;-2.598;2022-07-04T03:31:22;12.40;99.90
56256;DHT22;57229;51.432;-2.598;2022-07-04T03:33:48;12.40;99.90
56256;DHT22;57229;51.432;-2.598;2022-07-04T03:36:14;12.40;99.90
56256;DHT22;57229;51.432;-2.598;2022-07-04T03:38:39;12.40;99.90
56256;DHT22;57229;51.432;-2.598;2022-07-04T03:41:05;12.50;99.90
56256;DHT22;57229;51.432;-2.598;2022-07-04T03:43:31;12.50;99.90
56256;DHT22;57229;51.432;-2.598;2022-07-04T03:45:57;12.50;99.90
56256;DHT22;57229;51.432;-2.598;2022-07-04T03:48:22;12.40;99.90
56256;DHT22;57229;51.432;-2.598;2022-07-04T03:50:48;12.40;99.90
56256;DHT22;57229;51.432;-2.598;2022-07-04T03:53:13;12.30;99.90
56256;DHT22;57229;51.432;-2.598;2022-07-04T03:55:41;12.30;99.90
56256;DHT22;57229;51.432;-2.598;2022-07-04T03:58:07;12.30;99.90
56256;DHT22;57229;51.432;-2.598;2022-07-04T04:00:33;12.30;99.90
56256;DHT22;57229;51.432;-2.598;2022-07-04T04:02:59;12.30;99.90
56256;DHT22;57229;51.432;-2.598;2022-07-04T04:05:25;12.40;99.90
56256;DHT22;57229;51.432;-2.598;2022-07-04T04:08:00;12.30;99.90
56256;DHT22;57229;51.432;-2.598;2022-07-04T04:10:28;12.30;99.90
56256;DHT22;57229;51.432;-2.598;2022-07-04T04:12:54;12.30;99.90
56256;DHT22;57229;51.432;-2.598;2022-07-04T04:15:20;12.40;99.90
56256;DHT22;57229;51.432;-2.598;2022-07-04T04:17:46;12.40;99.90
56256;DHT22;57229;51.432;-2.598;2022-07-04T04:20:13;12.50;99.90
56256;DHT22;57229;51.432;-2.598;2022-07-04T04:22:38;12.50;99.90
56256;DHT22;57229;51.432;-2.598;2022-07-04T04:25:05;12.50;99.90
56256;DHT22;57229;51.432;-2.598;2022-07-04T04:27:31;12.60;99.90
56256;DHT22;57229;51.432;-2.598;2022-07-04T04:29:56;12.50;99.90
56256;DHT22;57229;51.432;-2.598;2022-07-04T04:32:22;12.60;99.90
56256;DHT22;57229;51.432;-2.598;2022-07-04T04:34:47;12.60;99.90
56256;DHT22;57229;51.432;-2.598;2022-07-04T04:37:13;12.70;99.90
56256;DHT22;57229;51.432;-2.598;2022-07-04T04:39:39;12.90;99.90
56256;DHT22;57229;51.432;-2.598;2022-07-04T04:42:05;13.10;99.90
56256;DHT22;57229;51.432;-2.598;2022-07-04T04:44:30;13.20;99.90
56256;DHT22;57229;51.432;-2.598;2022-07-04T04:46:56;13.20;99.90
56256;DHT22;57229;51.432;-2.598;2022-07-04T04:49:21;13.40;99.90
56256;DHT22;57229;51.432;-2.598;2022-07-04T04:51:47;13.50;99.90
56256;DHT22;57229;51.432;-2.598;2022-07-04T04:54:13;13.50;99.90
56256;DHT22;57229;51.432;-2.598;2022-07-04T04:56:39;13.60;99.90
56256;DHT22;57229;51.432;-2.598;2022-07-04T04:59:04;13.70;99.90
56256;DHT22;57229;51.432;-2.598;2022-07-04T05:01:30;13.80;99.90
56256;DHT22;57229;51.432;-2.598;2022-07-04T05:03:56;13.80;99.90
56256;DHT22;57229;51.432;-2.598;2022-07-04T05:06:22;13.90;99.90
56256;DHT22;57229;51.432;-2.598;2022-07-04T05:08:48;13.90;99.90
56256;DHT22;57229;51.432;-2.598;2022-07-04T05:11:14;14.00;99.90
56256;DHT22;57229;51.432;-2.598;2022-07-04T05:13:40;14.00;99.90
56256;DHT22;57229;51.432;-2.598;2022-07-04T05:16:05;14.10;99.90
56256;DHT22;57229;51.432;-2.598;2022-07-04T05:18:31;14.20;99.90
56256;DHT22;57229;51.432;-2.598;2022-07-04T05:20:58;14.40;99.90
56256;DHT22;57229;51.432;-2.598;2022-07-04T05:23:24;14.50;99.90
56256;DHT22;57229;51.432;-2.598;2022-07-04T05:25:49;14.60;99.90
56256;DHT22;57229;51.432;-2.598;2022-07-04T05:28:15;14.70;99.90
56256;DHT22;57229;51.432;-2.598;2022-07-04T05:30:41;14.70;99.90
56256;DHT22;57229;51.432;-2.598;2022-07-04T05:33:07;14.80;99.90
56256;DHT22;57229;51.432;-2.598;2022-07-04T05:35:33;14.70;99.90
56256;DHT22;57229;51.432;-2.598;2022-07-04T05:37:59;14.80;99.90
56256;DHT22;57229;51.432;-2.598;2022-07-04T05:40:25;14.80;99.90
56256;DHT22;57229;51.432;-2.598;2022-07-04T05:42:51;14.80;99.90
56256;DHT22;57229;51.432;-2.598;2022-07-04T05:45:17;14.80;99.90
56256;DHT22;57229;51.432;-2.598;2022-07-04T05:47:42;14.90;99.90
56256;DHT22;57229;51.432;-2.598;2022-07-04T05:50:09;15.00;99.90
56256;DHT22;57229;51.432;-2.598;2022-07-04T05:52:35;15.20;99.90
56256;DHT22;57229;51.432;-2.598;2022-07-04T05:55:01;15.30;99.90
56256;DHT22;57229;51.432;-2.598;2022-07-04T05:57:27;15.50;99.90
56256;DHT22;57229;51.432;-2.598;2022-07-04T05:59:53;15.50;99.90
56256;DHT22;57229;51.432;-2.598;2022-07-04T06:02:18;15.60;99.90
56256;DHT22;57229;51.432;-2.598;2022-07-04T06:04:44;15.70;99.90
56256;DHT22;57229;51.432;-2.598;2022-07-04T06:07:10;15.80;99.90
56256;DHT22;57229;51.432;-2.598;2022-07-04T06:09:36;15.90;99.90
56256;DHT22;57229;51.432;-2.598;2022-07-04T06:12:03;15.90;99.90
56256;DHT22;57229;51.432;-2.598;2022-07-04T06:14:29;15.90;99.90
56256;DHT22;57229;51.432;-2.598;2022-07-04T06:16:54;15.90;99.90
56256;DHT22;57229;51.432;-2.598;2022-07-04T06:19:20;15.90;99.90
56256;DHT22;57229;51.432;-2.598;2022-07-04T06:21:46;15.90;99.90
56256;DHT22;57229;51.432;-2.598;2022-07-04T06:24:11;16.00;99.90
56256;DHT22;57229;51.432;-2.598;2022-07-04T06:26:37;16.00;99.90
56256;DHT22;57229;51.432;-2.598;2022-07-04T06:29:03;16.00;99.90
56256;DHT22;57229;51.432;-2.598;2022-07-04T06:31:29;16.10;99.90
56256;DHT22;57229;51.432;-2.598;2022-07-04T06:33:54;16.30;99.90
56256;DHT22;57229;51.432;-2.598;2022-07-04T06:36:38;16.30;99.90
56256;DHT22;57229;51.432;-2.598;2022-07-04T06:39:04;16.40;99.90
56256;DHT22;57229;51.432;-2.598;2022-07-04T06:41:30;16.70;99.90
56256;DHT22;57229;51.432;-2.598;2022-07-04T06:43:56;17.00;99.90
56256;DHT22;57229;51.432;-2.598;2022-07-04T06:46:21;17.00;99.90
56256;DHT22;57229;51.432;-2.598;2022-07-04T06:48:47;16.90;99.90
56256;DHT22;57229;51.432;-2.598;2022-07-04T06:51:13;16.90;99.90
56256;DHT22;57229;51.432;-2.598;2022-07-04T06:53:41;17.00;99.90
56256;DHT22;57229;51.432;-2.598;2022-07-04T06:56:07;17.10;99.90
56256;DHT22;57229;51.432;-2.598;2022-07-04T06:58:32;17.10;99.90
56256;DHT22;57229;51.432;-2.598;2022-07-04T07:00:58;17.30;99.90
56256;DHT22;57229;51.432;-2.598;2022-07-04T07:03:24;17.50;99.90
56256;DHT22;57229;51.432;-2.598;2022-07-04T07:05:50;17.60;99.90
56256;DHT22;57229;51.432;-2.598;2022-07-04T07:08:16;17.70;99.90
56256;DHT22;57229;51.432;-2.598;2022-07-04T07:10:41;17.70;99.90
56256;DHT22;57229;51.432;-2.598;2022-07-04T07:13:07;17.70;99.90
56256;DHT22;57229;51.432;-2.598;2022-07-04T07:15:34;17.80;99.90
56256;DHT22;57229;51.432;-2.598;2022-07-04T07:18:02;17.80;99.90
56256;DHT22;57229;51.432;-2.598;2022-07-04T07:20:27;18.00;99.90
56256;DHT22;57229;51.432;-2.598;2022-07-04T07:22:53;18.10;99.90
56256;DHT22;57229;51.432;-2.598;2022-07-04T07:25:19;18.00;99.90
56256;DHT22;57229;51.432;-2.598;2022-07-04T07:27:44;17.90;99.90
56256;DHT22;57229;51.432;-2.598;2022-07-04T07:30:10;17.70;99.90
56256;DHT22;57229;51.432;-2.598;2022-07-04T07:32:36;17.50;99.90
56256;DHT22;57229;51.432;-2.598;2022-07-04T07:35:02;17.50;99.90
56256;DHT22;57229;51.432;-2.598;2022-07-04T07:37:28;17.50;99.90
56256;DHT22;57229;51.432;-2.598;2022-07-04T07:39:54;17.50;99.90
56256;DHT22;57229;51.432;-2.598;2022-07-04T07:42:22;17.40;99.90
56256;DHT22;57229;51.432;-2.598;2022-07-04T07:44:48;17.40;99.90
56256;DHT22;57229;51.432;-2.598;2022-07-04T07:47:13;17.60;99.90
56256;DHT22;57229;51.432;-2.598;2022-07-04T07:49:43;17.70;99.90
56256;DHT22;57229;51.432;-2.598;2022-07-04T07:52:10;18.00;99.90
56256;DHT22;57229;51.432;-2.598;2022-07-04T07:54:36;18.20;99.90
56256;DHT22;57229;51.432;-2.598;2022-07-04T07:57:02;18.40;99.90
56256;DHT22;57229;51.432;-2.598;2022-07-04T07:59:28;18.60;99.90
56256;DHT22;57229;51.432;-2.598;2022-07-04T08:01:53;18.60;99.90
56256;DHT22;57229;51.432;-2.598;2022-07-04T08:04:19;18.30;99.90
56256;DHT22;57229;51.432;-2.598;2022-07-04T08:07:02;18.10;99.90
56256;DHT22;57229;51.432;-2.598;2022-07-04T08:09:28;18.00;99.90
56256;DHT22;57229;51.432;-2.598;2022-07-04T08:11:54;17.90;99.90
56256;DHT22;57229;51.432;-2.598;2022-07-04T08:14:19;17.90;99.90
56256;DHT22;57229;51.432;-2.598;2022-07-04T08:16:45;17.80;99.90
56256;DHT22;57229;51.432;-2.598;2022-07-04T08:19:11;17.70;99.90
56256;DHT22;57229;51.432;-2.598;2022-07-04T08:21:36;17.60;99.90
56256;DHT22;57229;51.432;-2.598;2022-07-04T08:24:02;17.50;99.90
56256;DHT22;57229;51.432;-2.598;2022-07-04T08:26:28;17.40;99.90
56256;DHT22;57229;51.432;-2.598;2022-07-04T08:28:54;17.30;99.90
56256;DHT22;57229;51.432;-2.598;2022-07-04T08:31:26;17.30;99.90
56256;DHT22;57229;51.432;-2.598;2022-07-04T08:33:52;17.20;99.90
56256;DHT22;57229;51.432;-2.598;2022-07-04T08:36:18;17.10;99.90
56256;DHT22;57229;51.432;-2.598;2022-07-04T08:38:44;16.90;99.90
56256;DHT22;57229;51.432;-2.598;2022-07-04T08:41:12;16.80;99.90
56256;DHT22;57229;51.432;-2.598;2022-07-04T08:43:41;16.70;99.90
56256;DHT22;57229;51.432;-2.598;2022-07-04T08:46:07;16.60;99.90
56256;DHT22;57229;51.432;-2.598;2022-07-04T08:48:35;16.60;99.90
56256;DHT22;57229;51.432;-2.598;2022-07-04T08:51:46;16.60;99.90
56256;DHT22;57229;51.432;-2.598;2022-07-04T08:54:17;16.60;99.90
56256;DHT22;57229;51.432;-2.598;2022-07-04T08:57:02;16.70;99.90
56256;DHT22;57229;51.432;-2.598;2022-07-04T08:59:46;17.00;99.90
56256;DHT22;57229;51.432;-2.598;2022-07-04T09:02:16;17.50;99.90
56256;DHT22;57229;51.432;-2.598;2022-07-04T09:04:43;18.00;99.90
56256;DHT22;57229;51.432;-2.598;2022-07-04T09:07:12;18.20;99.90
56256;DHT22;57229;51.432;-2.598;2022-07-04T09:09:40;18.30;99.90
56256;DHT22;57229;51.432;-2.598;2022-07-04T09:12:06;18.50;99.90
56256;DHT22;57229;51.432;-2.598;2022-07-04T09:14:33;18.60;99.90
56256;DHT22;57229;51.432;-2.598;2022-07-04T09:16:59;18.50;99.90
56256;DHT22;57229;51.432;-2.598;2022-07-04T09:19:25;18.50;99.90
56256;DHT22;57229;51.432;-2.598;2022-07-04T09:21:51;18.40;99.90
56256;DHT22;57229;51.432;-2.598;2022-07-04T09:24:46;18.50;99.90
56256;DHT22;57229;51.432;-2.598;2022-07-04T09:27:15;18.40;99.90
56256;DHT22;57229;51.432;-2.598;2022-07-04T09:29:53;18.30;99.90
56256;DHT22;57229;51.432;-2.598;2022-07-04T09:32:46;18.10;99.90
56256;DHT22;57229;51.432;-2.598;2022-07-04T09:35:13;18.00;99.90
56256;DHT22;57229;51.432;-2.598;2022-07-04T09:37:43;17.90;99.90
56256;DHT22;57229;51.432;-2.598;2022-07-04T09:40:27;17.80;99.90
56256;DHT22;57229;51.432;-2.598;2022-07-04T09:42:57;17.90;99.90
56256;DHT22;57229;51.432;-2.598;2022-07-04T09:45:23;17.70;99.90
56256;DHT22;57229;51.432;-2.598;2022-07-04T09:47:54;17.80;99.90
56256;DHT22;57229;51.432;-2.598;2022-07-04T09:50:24;17.80;99.90
56256;DHT22;57229;51.432;-2.598;2022-07-04T09:55:25;18.00;99.90
56256;DHT22;57229;51.432;-2.598;2022-07-04T09:57:52;18.60;99.90
56256;DHT22;57229;51.432;-2.598;2022-07-04T10:00:26;19.40;99.90
56256;DHT22;57229;51.432;-2.598;2022-07-04T10:02:53;20.90;99.90
56256;DHT22;57229;51.432;-2.598;2022-07-04T10:05:23;22.30;97.20
56256;DHT22;57229;51.432;-2.598;2022-07-04T10:07:49;23.50;95.30
56256;DHT22;57229;51.432;-2.598;2022-07-04T10:10:33;24.20;92.90
56256;DHT22;57229;51.432;-2.598;2022-07-04T10:13:09;24.20;92.20
56256;DHT22;57229;51.432;-2.598;2022-07-04T10:15:40;24.60;91.50
56256;DHT22;57229;51.432;-2.598;2022-07-04T10:18:07;23.90;92.30
56256;DHT22;57229;51.432;-2.598;2022-07-04T10:20:34;23.10;92.80
56256;DHT22;57229;51.432;-2.598;2022-07-04T10:23:00;22.30;94.10
56256;DHT22;57229;51.432;-2.598;2022-07-04T10:25:27;21.80;94.90
56256;DHT22;57229;51.432;-2.598;2022-07-04T10:27:53;21.60;94.40
56256;DHT22;57229;51.432;-2.598;2022-07-04T10:30:49;21.40;94.50
56256;DHT22;57229;51.432;-2.598;2022-07-04T10:33:15;22.00;94.00
56256;DHT22;57229;51.432;-2.598;2022-07-04T10:38:17;22.30;91.90
56256;DHT22;57229;51.432;-2.598;2022-07-04T10:40:46;21.40;92.40
56256;DHT22;57229;51.432;-2.598;2022-07-04T10:57:28;24.20;88.30
56256;DHT22;57229;51.432;-2.598;2022-07-04T11:02:35;22.10;90.70
56256;DHT22;57229;51.432;-2.598;2022-07-04T11:05:06;21.40;91.90
56256;DHT22;57229;51.432;-2.598;2022-07-04T11:18:14;24.80;85.30
56256;DHT22;57229;51.432;-2.598;2022-07-04T11:20:47;26.00;80.60
56256;DHT22;57229;51.432;-2.598;2022-07-04T11:23:28;26.30;79.30
56256;DHT22;57229;51.432;-2.598;2022-07-04T11:26:05;25.90;77.40
56256;DHT22;57229;51.432;-2.598;2022-07-04T11:28:57;25.10;78.90
56256;DHT22;57229;51.432;-2.598;2022-07-04T11:31:58;25.20;79.60
56256;DHT22;57229;51.432;-2.598;2022-07-04T11:34:34;26.70;74.90
56256;DHT22;57229;51.432;-2.598;2022-07-04T11:37:02;27.40;73.90
56256;DHT22;57229;51.432;-2.598;2022-07-04T11:40:17;28.10;71.70
56256;DHT22;57229;51.432;-2.598;2022-07-04T11:43:02;27.40;70.10
56256;DHT22;57229;51.432;-2.598;2022-07-04T11:45:45;25.10;74.70
56256;DHT22;57229;51.432;-2.598;2022-07-04T11:48:24;24.40;77.10
56256;DHT22;57229;51.432;-2.598;2022-07-04T11:50:55;24.90;75.70
56256;DHT22;57229;51.432;-2.598;2022-07-04T11:53:21;25.20;75.50
56256;DHT22;57229;51.432;-2.598;2022-07-04T11:55:57;26.70;72.90
56256;DHT22;57229;51.432;-2.598;2022-07-04T11:58:42;27.90;71.00
56256;DHT22;57229;51.432;-2.598;2022-07-04T12:01:09;27.10;71.10
56256;DHT22;57229;51.432;-2.598;2022-07-04T12:03:36;25.90;71.90
56256;DHT22;57229;51.432;-2.598;2022-07-04T12:06:05;25.50;74.00
56256;DHT22;57229;51.432;-2.598;2022-07-04T12:08:32;26.60;74.70
56256;DHT22;57229;51.432;-2.598;2022-07-04T12:11:01;27.70;71.90
56256;DHT22;57229;51.432;-2.598;2022-07-04T12:13:27;27.40;71.20
56256;DHT22;57229;51.432;-2.598;2022-07-04T12:15:56;26.20;73.60
56256;DHT22;57229;51.432;-2.598;2022-07-04T12:18:24;24.90;75.90
56256;DHT22;57229;51.432;-2.598;2022-07-04T12:20:52;24.60;75.50
56256;DHT22;57229;51.432;-2.598;2022-07-04T12:23:20;23.80;77.90
56256;DHT22;57229;51.432;-2.598;2022-07-04T12:25:49;22.70;79.70
56256;DHT22;57229;51.432;-2.598;2022-07-04T12:28:17;22.80;81.40
56256;DHT22;57229;51.432;-2.598;2022-07-04T12:31:15;23.60;80.60
56256;DHT22;57229;51.432;-2.598;2022-07-04T12:33:57;25.90;75.80
56256;DHT22;57229;51.432;-2.598;2022-07-04T12:36:32;26.60;72.30
56256;DHT22;57229;51.432;-2.598;2022-07-04T12:39:44;25.80;73.80
56256;DHT22;57229;51.432;-2.598;2022-07-04T12:42:17;25.10;74.90
56256;DHT22;57229;51.432;-2.598;2022-07-04T12:44:45;23.60;79.00
56256;DHT22;57229;51.432;-2.598;2022-07-04T12:47:12;23.00;79.80
56256;DHT22;57229;51.432;-2.598;2022-07-04T12:49:42;22.40;82.10
56256;DHT22;57229;51.432;-2.598;2022-07-04T12:52:13;22.00;82.80
56256;DHT22;57229;51.432;-2.598;2022-07-04T12:54:39;21.40;84.90
56256;DHT22;57229;51.432;-2.598;2022-07-04T12:57:13;21.40;85.00
56256;DHT22;57229;51.432;-2.598;2022-07-04T12:59:41;21.40;85.70
56256;DHT22;57229;51.432;-2.598;2022-07-04T13:02:08;21.30;86.00
56256;DHT22;57229;51.432;-2.598;2022-07-04T13:04:34;21.70;85.90
56256;DHT22;57229;51.432;-2.598;2022-07-04T13:07:15;21.80;85.40
56256;DHT22;57229;51.432;-2.598;2022-07-04T13:09:45;22.20;83.20
56256;DHT22;57229;51.432;-2.598;2022-07-04T13:12:12;22.20;83.30
56256;DHT22;57229;51.432;-2.598;2022-07-04T13:14:51;22.30;82.90
56256;DHT22;57229;51.432;-2.598;2022-07-04T13:17:18;21.90;83.20
56256;DHT22;57229;51.432;-2.598;2022-07-04T13:19:49;21.60;83.90
56256;DHT22;57229;51.432;-2.598;2022-07-04T13:22:18;21.40;84.50
56256;DHT22;57229;51.432;-2.598;2022-07-04T13:24:44;21.40;84.60
56256;DHT22;57229;51.432;-2.598;2022-07-04T13:27:10;21.30;84.70
56256;DHT22;57229;51.432;-2.598;2022-07-04T13:29:36;20.80;86.00
56256;DHT22;57229;51.432;-2.598;2022-07-04T13:32:03;21.10;86.50
56256;DHT22;57229;51.432;-2.598;2022-07-04T13:34:30;21.20;86.70
56256;DHT22;57229;51.432;-2.598;2022-07-04T13:36:55;21.10;87.40
56256;DHT22;57229;51.432;-2.598;2022-07-04T13:39:22;21.40;87.20
56256;DHT22;57229;51.432;-2.598;2022-07-04T13:41:48;22.20;86.30
56256;DHT22;57229;51.432;-2.598;2022-07-04T13:44:15;23.10;85.00
56256;DHT22;57229;51.432;-2.598;2022-07-04T13:46:45;24.20;78.60
56256;DHT22;57229;51.432;-2.598;2022-07-04T13:49:11;24.80;78.10
56256;DHT22;57229;51.432;-2.598;2022-07-04T13:51:38;24.80;78.90
56256;DHT22;57229;51.432;-2.598;2022-07-04T13:54:04;24.70;79.90
56256;DHT22;57229;51.432;-2.598;2022-07-04T13:56:30;24.20;80.90
56256;DHT22;57229;51.432;-2.598;2022-07-04T13:58:56;23.20;83.60
56256;DHT22;57229;51.432;-2.598;2022-07-04T14:01:22;22.40;86.40
56256;DHT22;57229;51.432;-2.598;2022-07-04T14:03:48;21.80;87.40
56256;DHT22;57229;51.432;-2.598;2022-07-04T14:06:16;21.40;88.10
56256;DHT22;57229;51.432;-2.598;2022-07-04T14:08:42;21.20;90.10
56256;DHT22;57229;51.432;-2.598;2022-07-04T14:11:08;21.20;90.30
56256;DHT22;57229;51.432;-2.598;2022-07-04T14:13:34;20.80;90.40
56256;DHT22;57229;51.432;-2.598;2022-07-04T14:16:00;20.60;91.20
56256;DHT22;57229;51.432;-2.598;2022-07-04T14:18:26;20.70;91.40
56256;DHT22;57229;51.432;-2.598;2022-07-04T14:20:51;20.50;91.50
56256;DHT22;57229;51.432;-2.598;2022-07-04T14:23:17;20.30;92.30
56256;DHT22;57229;51.432;-2.598;2022-07-04T14:26:03;20.00;92.80
56256;DHT22;57229;51.432;-2.598;2022-07-04T14:28:28;19.80;93.50
56256;DHT22;57229;51.432;-2.598;2022-07-04T14:30:54;19.90;93.30
56256;DHT22;57229;51.432;-2.598;2022-07-04T14:33:20;19.80;93.60
56256;DHT22;57229;51.432;-2.598;2022-07-04T14:35:45;19.80;93.90
56256;DHT22;57229;51.432;-2.598;2022-07-04T14:38:11;19.90;94.20
56256;DHT22;57229;51.432;-2.598;2022-07-04T14:40:36;20.10;93.60
56256;DHT22;57229;51.432;-2.598;2022-07-04T14:43:06;19.80;93.90
56256;DHT22;57229;51.432;-2.598;2022-07-04T14:45:31;19.60;94.60
56256;DHT22;57229;51.432;-2.598;2022-07-04T14:47:57;19.60;94.80
56256;DHT22;57229;51.432;-2.598;2022-07-04T14:50:23;19.80;94.30
56256;DHT22;57229;51.432;-2.598;2022-07-04T14:52:50;20.10;94.00
56256;DHT22;57229;51.432;-2.598;2022-07-04T14:55:16;20.80;92.90
56256;DHT22;57229;51.432;-2.598;2022-07-04T14:57:41;21.40;91.70
56256;DHT22;57229;51.432;-2.598;2022-07-04T15:00:08;22.30;90.50
56256;DHT22;57229;51.432;-2.598;2022-07-04T15:02:33;22.40;89.10
56256;DHT22;57229;51.432;-2.598;2022-07-04T15:04:59;22.10;90.00
56256;DHT22;57229;51.432;-2.598;2022-07-04T15:07:25;22.40;89.70
56256;DHT22;57229;51.432;-2.598;2022-07-04T15:09:52;22.60;88.30
56256;DHT22;57229;51.432;-2.598;2022-07-04T15:12:18;23.10;86.40
56256;DHT22;57229;51.432;-2.598;2022-07-04T15:14:45;24.10;83.80
56256;DHT22;57229;51.432;-2.598;2022-07-04T15:17:11;23.90;83.40
56256;DHT22;57229;51.432;-2.598;2022-07-04T15:19:37;23.50;84.00
56256;DHT22;57229;51.432;-2.598;2022-07-04T15:22:22;23.80;83.10
56256;DHT22;57229;51.432;-2.598;2022-07-04T15:25:06;23.50;83.90
56256;DHT22;57229;51.432;-2.598;2022-07-04T15:27:33;23.50;85.40
56256;DHT22;57229;51.432;-2.598;2022-07-04T15:29:59;23.60;86.00
56256;DHT22;57229;51.432;-2.598;2022-07-04T15:32:24;23.80;85.30
56256;DHT22;57229;51.432;-2.598;2022-07-04T15:34:50;24.50;83.40
56256;DHT22;57229;51.432;-2.598;2022-07-04T15:37:16;24.50;82.20
56256;DHT22;57229;51.432;-2.598;2022-07-04T15:39:42;24.10;82.60
56256;DHT22;57229;51.432;-2.598;2022-07-04T15:42:07;24.80;81.60
56256;DHT22;57229;51.432;-2.598;2022-07-04T15:44:33;25.00;80.40
56256;DHT22;57229;51.432;-2.598;2022-07-04T15:46:59;25.00;81.10
56256;DHT22;57229;51.432;-2.598;2022-07-04T15:49:34;25.00;80.40
56256;DHT22;57229;51.432;-2.598;2022-07-04T15:52:00;25.30;79.30
56256;DHT22;57229;51.432;-2.598;2022-07-04T15:54:26;25.30;79.60